sensor_id;sensor_type;location;lat;lon;timestamp;temperature;humidity
47779;DHT22;33538;48.432;11.350;2022-09-13T00:00:32;15.30;85.00
47779;DHT22;33538;48.432;11.350;2022-09-13T00:02:59;15.20;85.30
47779;DHT22;33538;48.432;11.350;2022-09-13T00:05:26;15.20;85.80
47779;DHT22;33538;48.432;11.350;2022-09-13T00:07:53;15.30;85.30
47779;DHT22;33538;48.432;11.350;2022-09-13T00:10:20;15.30;84.90
47779;DHT22;33538;48.432;11.350;2022-09-13T00:12:48;15.20;84.80
47779;DHT22;33538;48.432;11.350;2022-09-13T00:15:15;15.20;85.40
47779;DHT22;33538;48.432;11.350;2022-09-13T00:17:43;15.20;84.90
47779;DHT22;33538;48.432;11.350;2022-09-13T00:20:10;15.10;87.00
47779;DHT22;33538;48.432;11.350;2022-09-13T00:22:37;15.10;86.30
47779;DHT22;33538;48.432;11.350;2022-09-13T00:25:05;15.10;86.10
47779;DHT22;33538;48.432;11.350;2022-09-13T00:27:33;15.10;86.30
47779;DHT22;33538;48.432;11.350;2022-09-13T00:30:00;15.00;86.50
47779;DHT22;33538;48.432;11.350;2022-09-13T00:32:26;15.00;86.40
47779;DHT22;33538;48.432;11.350;2022-09-13T00:34:54;14.90;86.30
47779;DHT22;33538;48.432;11.350;2022-09-13T00:37:21;15.00;85.50
47779;DHT22;33538;48.432;11.350;2022-09-13T00:39:48;15.00;85.20
47779;DHT22;33538;48.432;11.350;2022-09-13T00:42:16;15.00;85.10
47779;DHT22;33538;48.432;11.350;2022-09-13T00:44:54;15.00;84.70
47779;DHT22;33538;48.432;11.350;2022-09-13T00:47:25;15.00;84.20
47779;DHT22;33538;48.432;11.350;2022-09-13T00:49:57;15.00;84.20
47779;DHT22;33538;48.432;11.350;2022-09-13T00:52:27;15.00;84.40
47779;DHT22;33538;48.432;11.350;2022-09-13T00:54:59;14.90;84.20
47779;DHT22;33538;48.432;11.350;2022-09-13T00:57:26;14.80;84.90
47779;DHT22;33538;48.432;11.350;2022-09-13T00:59:58;14.70;85.90
47779;DHT22;33538;48.432;11.350;2022-09-13T01:02:25;14.70;87.20
47779;DHT22;33538;48.432;11.350;2022-09-13T01:04:53;14.80;85.80
47779;DHT22;33538;48.432;11.350;2022-09-13T01:07:21;14.80;85.10
47779;DHT22;33538;48.432;11.350;2022-09-13T01:09:49;14.80;84.20
47779;DHT22;33538;48.432;11.350;2022-09-13T01:12:24;14.90;84.60
47779;DHT22;33538;48.432;11.350;2022-09-13T01:14:56;14.90;84.00
47779;DHT22;33538;48.432;11.350;2022-09-13T01:17:25;14.90;83.70
47779;DHT22;33538;48.432;11.350;2022-09-13T01:19:52;14.80;84.20
47779;DHT22;33538;48.432;11.350;2022-09-13T01:22:54;14.80;84.10
47779;DHT22;33538;48.432;11.350;2022-09-13T01:31:34;14.70;84.30
47779;DHT22;33538;48.432;11.350;2022-09-13T01:34:12;14.80;83.70
47779;DHT22;33538;48.432;11.350;2022-09-13T01:37:14;14.70;83.90
47779;DHT22;33538;48.432;11.350;2022-09-13T01:40:02;14.70;83.80
47779;DHT22;33538;48.432;11.350;2022-09-13T01:42:44;14.70;85.20
47779;DHT22;33538;48.432;11.350;2022-09-13T01:45:22;14.60;85.10
47779;DHT22;33538;48.432;11.350;2022-09-13T01:47:57;14.70;84.20
47779;DHT22;33538;48.432;11.350;2022-09-13T01:50:33;14.70;84.10
47779;DHT22;33538;48.432;11.350;2022-09-13T01:53:06;14.70;85.00
47779;DHT22;33538;48.432;11.350;2022-09-13T01:55:40;14.60;83.00
47779;DHT22;33538;48.432;11.350;2022-09-13T01:58:18;14.50;83.20
47779;DHT22;33538;48.432;11.350;2022-09-13T02:00:49;14.50;83.30
47779;DHT22;33538;48.432;11.350;2022-09-13T02:03:24;14.50;84.10
47779;DHT22;33538;48.432;11.350;2022-09-13T02:05:55;14.50;84.00
47779;DHT22;33538;48.432;11.350;2022-09-13T02:08:31;14.40;84.10
47779;DHT22;33538;48.432;11.350;2022-09-13T02:11:04;14.50;83.30
47779;DHT22;33538;48.432;11.350;2022-09-13T02:13:34;14.40;83.20
47779;DHT22;33538;48.432;11.350;2022-09-13T02:16:07;14.50;83.40
47779;DHT22;33538;48.432;11.350;2022-09-13T02:18:39;14.40;84.30
47779;DHT22;33538;48.432;11.350;2022-09-13T02:21:10;14.30;83.70
47779;DHT22;33538;48.432;11.350;2022-09-13T02:23:40;14.40;83.20
47779;DHT22;33538;48.432;11.350;2022-09-13T02:26:12;14.40;83.30
47779;DHT22;33538;48.432;11.350;2022-09-13T02:28:43;14.40;83.10
47779;DHT22;33538;48.432;11.350;2022-09-13T02:31:11;14.40;83.10
47779;DHT22;33538;48.432;11.350;2022-09-13T02:33:44;14.30;83.00
47779;DHT22;33538;48.432;11.350;2022-09-13T02:36:20;14.30;84.30
47779;DHT22;33538;48.432;11.350;2022-09-13T02:38:52;14.30;84.40
47779;DHT22;33538;48.432;11.350;2022-09-13T02:41:24;14.20;84.30
47779;DHT22;33538;48.432;11.350;2022-09-13T02:43:58;14.30;83.70
47779;DHT22;33538;48.432;11.350;2022-09-13T02:49:28;14.20;83.30
47779;DHT22;33538;48.432;11.350;2022-09-13T02:52:05;14.20;83.40
47779;DHT22;33538;48.432;11.350;2022-09-13T02:54:37;14.20;83.30
47779;DHT22;33538;48.432;11.350;2022-09-13T02:57:08;14.10;83.60
47779;DHT22;33538;48.432;11.350;2022-09-13T02:59:37;14.10;83.90
47779;DHT22;33538;48.432;11.350;2022-09-13T03:02:06;14.20;83.40
47779;DHT22;33538;48.432;11.350;2022-09-13T03:04:35;14.20;83.90
47779;DHT22;33538;48.432;11.350;2022-09-13T03:07:02;14.10;84.40
47779;DHT22;33538;48.432;11.350;2022-09-13T03:09:31;14.10;83.70
47779;DHT22;33538;48.432;11.350;2022-09-13T03:12:14;14.10;83.40
47779;DHT22;33538;48.432;11.350;2022-09-13T03:14:50;14.00;83.60
47779;DHT22;33538;48.432;11.350;2022-09-13T03:17:31;14.10;83.30
47779;DHT22;33538;48.432;11.350;2022-09-13T03:20:08;14.10;83.30
47779;DHT22;33538;48.432;11.350;2022-09-13T03:25:43;14.10;83.70
47779;DHT22;33538;48.432;11.350;2022-09-13T03:28:22;14.00;83.70
47779;DHT22;33538;48.432;11.350;2022-09-13T03:30:54;13.70;86.30
47779;DHT22;33538;48.432;11.350;2022-09-13T03:33:28;13.70;85.90
47779;DHT22;33538;48.432;11.350;2022-09-13T03:36:06;13.90;84.80
47779;DHT22;33538;48.432;11.350;2022-09-13T03:38:40;13.90;84.50
47779;DHT22;33538;48.432;11.350;2022-09-13T03:41:10;14.00;83.70
47779;DHT22;33538;48.432;11.350;2022-09-13T03:43:43;14.00;83.90
47779;DHT22;33538;48.432;11.350;2022-09-13T03:46:16;14.00;83.50
47779;DHT22;33538;48.432;11.350;2022-09-13T03:48:44;14.00;82.90
47779;DHT22;33538;48.432;11.350;2022-09-13T03:51:13;13.90;83.40
47779;DHT22;33538;48.432;11.350;2022-09-13T03:53:45;13.80;83.10
47779;DHT22;33538;48.432;11.350;2022-09-13T03:56:13;13.80;82.60
47779;DHT22;33538;48.432;11.350;2022-09-13T03:58:40;13.80;83.20
47779;DHT22;33538;48.432;11.350;2022-09-13T04:01:07;13.80;83.40
47779;DHT22;33538;48.432;11.350;2022-09-13T04:03:34;13.90;83.60
47779;DHT22;33538;48.432;11.350;2022-09-13T04:06:01;13.90;82.40
47779;DHT22;33538;48.432;11.350;2022-09-13T04:08:29;13.80;82.00
47779;DHT22;33538;48.432;11.350;2022-09-13T04:10:56;13.90;82.70
47779;DHT22;33538;48.432;11.350;2022-09-13T04:13:22;13.90;82.70
47779;DHT22;33538;48.432;11.350;2022-09-13T04:15:49;13.80;82.90
47779;DHT22;33538;48.432;11.350;2022-09-13T04:18:16;13.60;83.90
47779;DHT22;33538;48.432;11.350;2022-09-13T04:20:43;13.70;83.80
47779;DHT22;33538;48.432;11.350;2022-09-13T04:23:10;13.80;83.40
47779;DHT22;33538;48.432;11.350;2022-09-13T04:25:38;13.80;82.90
47779;DHT22;33538;48.432;11.350;2022-09-13T04:28:05;13.70;84.00
47779;DHT22;33538;48.432;11.350;2022-09-13T04:30:32;13.70;83.80
47779;DHT22;33538;48.432;11.350;2022-09-13T04:32:58;13.70;83.30
47779;DHT22;33538;48.432;11.350;2022-09-13T04:35:25;13.70;83.00
47779;DHT22;33538;48.432;11.350;2022-09-13T04:37:54;13.80;82.60
47779;DHT22;33538;48.432;11.350;2022-09-13T04:40:20;13.70;82.70
47779;DHT22;33538;48.432;11.350;2022-09-13T04:42:49;13.80;82.50
47779;DHT22;33538;48.432;11.350;2022-09-13T04:45:15;13.70;83.40
47779;DHT22;33538;48.432;11.350;2022-09-13T04:47:42;13.60;83.50
47779;DHT22;33538;48.432;11.350;2022-09-13T04:50:09;13.60;83.10
47779;DHT22;33538;48.432;11.350;2022-09-13T04:52:35;13.60;84.10
47779;DHT22;33538;48.432;11.350;2022-09-13T04:55:03;13.60;82.60
47779;DHT22;33538;48.432;11.350;2022-09-13T04:57:29;13.70;82.90
47779;DHT22;33538;48.432;11.350;2022-09-13T04:59:57;13.70;82.60
47779;DHT22;33538;48.432;11.350;2022-09-13T05:02:24;13.70;83.00
47779;DHT22;33538;48.432;11.350;2022-09-13T05:04:51;13.60;82.70
47779;DHT22;33538;48.432;11.350;2022-09-13T05:07:18;13.60;84.00
47779;DHT22;33538;48.432;11.350;2022-09-13T05:09:44;13.40;84.60
47779;DHT22;33538;48.432;11.350;2022-09-13T05:12:11;13.50;84.90
47779;DHT22;33538;48.432;11.350;2022-09-13T05:14:38;13.50;84.90
47779;DHT22;33538;48.432;11.350;2022-09-13T05:17:06;13.50;84.80
47779;DHT22;33538;48.432;11.350;2022-09-13T05:19:33;13.40;84.50
47779;DHT22;33538;48.432;11.350;2022-09-13T05:22:00;13.50;84.10
47779;DHT22;33538;48.432;11.350;2022-09-13T05:24:26;13.50;83.60
47779;DHT22;33538;48.432;11.350;2022-09-13T05:26:53;13.50;84.10
47779;DHT22;33538;48.432;11.350;2022-09-13T05:29:20;13.50;84.20
47779;DHT22;33538;48.432;11.350;2022-09-13T05:31:47;13.50;84.50
47779;DHT22;33538;48.432;11.350;2022-09-13T05:34:16;13.40;84.40
47779;DHT22;33538;48.432;11.350;2022-09-13T05:36:43;13.30;87.30
47779;DHT22;33538;48.432;11.350;2022-09-13T05:39:12;13.40;86.20
47779;DHT22;33538;48.432;11.350;2022-09-13T05:41:59;13.50;84.80
47779;DHT22;33538;48.432;11.350;2022-09-13T05:44:26;13.50;85.30
47779;DHT22;33538;48.432;11.350;2022-09-13T05:46:52;13.50;85.70
47779;DHT22;33538;48.432;11.350;2022-09-13T05:49:20;13.50;85.60
47779;DHT22;33538;48.432;11.350;2022-09-13T05:51:47;13.60;85.70
47779;DHT22;33538;48.432;11.350;2022-09-13T05:54:14;13.50;86.80
47779;DHT22;33538;48.432;11.350;2022-09-13T05:56:41;13.30;89.80
47779;DHT22;33538;48.432;11.350;2022-09-13T05:59:11;13.40;90.00
47779;DHT22;33538;48.432;11.350;2022-09-13T06:01:38;13.50;88.50
47779;DHT22;33538;48.432;11.350;2022-09-13T06:04:05;13.60;87.90
47779;DHT22;33538;48.432;11.350;2022-09-13T06:06:33;13.70;87.80
47779;DHT22;33538;48.432;11.350;2022-09-13T06:09:00;13.80;88.50
47779;DHT22;33538;48.432;11.350;2022-09-13T06:11:27;13.80;89.20
47779;DHT22;33538;48.432;11.350;2022-09-13T06:13:53;13.90;90.00
47779;DHT22;33538;48.432;11.350;2022-09-13T06:16:20;13.80;90.50
47779;DHT22;33538;48.432;11.350;2022-09-13T06:18:47;13.90;90.50
47779;DHT22;33538;48.432;11.350;2022-09-13T06:21:16;13.90;90.30
47779;DHT22;33538;48.432;11.350;2022-09-13T06:23:46;14.00;90.00
47779;DHT22;33538;48.432;11.350;2022-09-13T06:26:14;14.10;90.70
47779;DHT22;33538;48.432;11.350;2022-09-13T06:28:42;14.20;91.70
47779;DHT22;33538;48.432;11.350;2022-09-13T06:31:10;14.30;91.80
47779;DHT22;33538;48.432;11.350;2022-09-13T06:33:38;14.40;90.60
47779;DHT22;33538;48.432;11.350;2022-09-13T06:36:06;14.50;84.80
47779;DHT22;33538;48.432;11.350;2022-09-13T06:38:34;14.50;83.30
47779;DHT22;33538;48.432;11.350;2022-09-13T06:41:03;14.60;82.40
47779;DHT22;33538;48.432;11.350;2022-09-13T06:43:31;14.70;81.50
47779;DHT22;33538;48.432;11.350;2022-09-13T06:45:59;14.70;81.10
47779;DHT22;33538;48.432;11.350;2022-09-13T06:48:29;14.70;80.60
47779;DHT22;33538;48.432;11.350;2022-09-13T06:50:57;14.80;80.70
47779;DHT22;33538;48.432;11.350;2022-09-13T06:53:24;14.80;80.60
47779;DHT22;33538;48.432;11.350;2022-09-13T06:55:59;14.80;80.70
47779;DHT22;33538;48.432;11.350;2022-09-13T06:58:28;14.90;80.40
47779;DHT22;33538;48.432;11.350;2022-09-13T07:01:04;14.90;80.40
47779;DHT22;33538;48.432;11.350;2022-09-13T07:03:31;14.90;80.40
47779;DHT22;33538;48.432;11.350;2022-09-13T07:05:58;14.90;80.50
47779;DHT22;33538;48.432;11.350;2022-09-13T07:08:24;14.90;80.60
47779;DHT22;33538;48.432;11.350;2022-09-13T07:10:56;15.00;80.60
47779;DHT22;33538;48.432;11.350;2022-09-13T07:13:22;15.00;80.60
47779;DHT22;33538;48.432;11.350;2022-09-13T07:15:50;15.00;80.80
47779;DHT22;33538;48.432;11.350;2022-09-13T07:18:17;15.10;81.00
47779;DHT22;33538;48.432;11.350;2022-09-13T07:20:44;15.10;81.00
47779;DHT22;33538;48.432;11.350;2022-09-13T07:23:11;15.10;80.90
47779;DHT22;33538;48.432;11.350;2022-09-13T07:25:41;15.20;80.80
47779;DHT22;33538;48.432;11.350;2022-09-13T07:28:07;15.20;81.00
47779;DHT22;33538;48.432;11.350;2022-09-13T07:30:34;15.20;81.00
47779;DHT22;33538;48.432;11.350;2022-09-13T07:33:02;15.30;81.10
47779;DHT22;33538;48.432;11.350;2022-09-13T07:35:29;15.30;81.20
47779;DHT22;33538;48.432;11.350;2022-09-13T07:37:55;15.40;81.30
47779;DHT22;33538;48.432;11.350;2022-09-13T07:40:22;15.40;81.40
47779;DHT22;33538;48.432;11.350;2022-09-13T07:42:49;15.40;81.60
47779;DHT22;33538;48.432;11.350;2022-09-13T07:45:16;15.50;81.60
47779;DHT22;33538;48.432;11.350;2022-09-13T07:47:42;15.50;81.60
47779;DHT22;33538;48.432;11.350;2022-09-13T07:50:10;15.50;81.80
47779;DHT22;33538;48.432;11.350;2022-09-13T07:52:37;15.50;82.00
47779;DHT22;33538;48.432;11.350;2022-09-13T07:55:04;15.60;82.20
47779;DHT22;33538;48.432;11.350;2022-09-13T07:57:31;15.50;82.30
47779;DHT22;33538;48.432;11.350;2022-09-13T07:59:58;15.60;82.80
47779;DHT22;33538;48.432;11.350;2022-09-13T08:02:24;15.60;82.60
47779;DHT22;33538;48.432;11.350;2022-09-13T08:04:51;15.60;83.00
47779;DHT22;33538;48.432;11.350;2022-09-13T08:07:19;15.60;83.30
47779;DHT22;33538;48.432;11.350;2022-09-13T08:09:46;15.60;83.40
47779;DHT22;33538;48.432;11.350;2022-09-13T08:12:13;15.70;83.50
47779;DHT22;33538;48.432;11.350;2022-09-13T08:14:39;15.70;83.90
47779;DHT22;33538;48.432;11.350;2022-09-13T08:17:06;15.70;84.10
47779;DHT22;33538;48.432;11.350;2022-09-13T08:19:33;15.70;84.20
47779;DHT22;33538;48.432;11.350;2022-09-13T08:21:59;15.70;84.50
47779;DHT22;33538;48.432;11.350;2022-09-13T08:24:27;15.70;84.70
47779;DHT22;33538;48.432;11.350;2022-09-13T08:26:54;15.80;85.30
47779;DHT22;33538;48.432;11.350;2022-09-13T08:29:21;15.80;86.60
47779;DHT22;33538;48.432;11.350;2022-09-13T08:31:48;15.80;85.90
47779;DHT22;33538;48.432;11.350;2022-09-13T08:34:15;15.80;86.40
47779;DHT22;33538;48.432;11.350;2022-09-13T08:36:42;15.90;86.80
47779;DHT22;33538;48.432;11.350;2022-09-13T08:39:10;15.90;87.00
47779;DHT22;33538;48.432;11.350;2022-09-13T08:41:54;15.90;87.20
47779;DHT22;33538;48.432;11.350;2022-09-13T08:44:26;16.00;87.60
47779;DHT22;33538;48.432;11.350;2022-09-13T08:46:58;16.00;88.10
47779;DHT22;33538;48.432;11.350;2022-09-13T08:49:29;16.00;88.30
47779;DHT22;33538;48.432;11.350;2022-09-13T08:51:59;16.00;89.20
47779;DHT22;33538;48.432;11.350;2022-09-13T08:54:26;16.00;89.20
47779;DHT22;33538;48.432;11.350;2022-09-13T08:57:01;16.10;89.90
47779;DHT22;33538;48.432;11.350;2022-09-13T08:59:43;16.10;90.20
47779;DHT22;33538;48.432;11.350;2022-09-13T09:02:23;16.20;90.50
47779;DHT22;33538;48.432;11.350;2022-09-13T09:04:55;16.20;90.50
47779;DHT22;33538;48.432;11.350;2022-09-13T09:07:30;16.20;91.10
47779;DHT22;33538;48.432;11.350;2022-09-13T09:10:00;16.30;91.00
47779;DHT22;33538;48.432;11.350;2022-09-13T09:12:35;16.30;91.40
47779;DHT22;33538;48.432;11.350;2022-09-13T09:15:12;16.30;91.20
47779;DHT22;33538;48.432;11.350;2022-09-13T09:17:49;16.40;91.70
47779;DHT22;33538;48.432;11.350;2022-09-13T09:20:26;16.40;92.10
47779;DHT22;33538;48.432;11.350;2022-09-13T09:22:54;16.40;92.20
47779;DHT22;33538;48.432;11.350;2022-09-13T09:25:23;16.50;92.00
47779;DHT22;33538;48.432;11.350;2022-09-13T09:27:52;16.50;92.50
47779;DHT22;33538;48.432;11.350;2022-09-13T09:30:19;16.50;92.20
47779;DHT22;33538;48.432;11.350;2022-09-13T09:32:55;16.60;92.40
47779;DHT22;33538;48.432;11.350;2022-09-13T09:35:31;16.60;92.70
47779;DHT22;33538;48.432;11.350;2022-09-13T09:40:51;16.70;93.30
47779;DHT22;33538;48.432;11.350;2022-09-13T09:43:23;16.70;93.10
47779;DHT22;33538;48.432;11.350;2022-09-13T09:45:51;16.70;93.90
47779;DHT22;33538;48.432;11.350;2022-09-13T09:48:22;16.70;94.00
47779;DHT22;33538;48.432;11.350;2022-09-13T09:50:54;16.80;94.00
47779;DHT22;33538;48.432;11.350;2022-09-13T09:53:24;16.80;94.10
47779;DHT22;33538;48.432;11.350;2022-09-13T09:55:57;16.80;94.50
47779;DHT22;33538;48.432;11.350;2022-09-13T09:58:47;16.90;94.60
47779;DHT22;33538;48.432;11.350;2022-09-13T10:01:20;16.90;94.80
47779;DHT22;33538;48.432;11.350;2022-09-13T10:03:53;16.90;95.20
47779;DHT22;33538;48.432;11.350;2022-09-13T10:06:23;17.00;95.30
47779;DHT22;33538;48.432;11.350;2022-09-13T10:08:56;17.00;95.70
47779;DHT22;33538;48.432;11.350;2022-09-13T10:11:23;17.00;95.70
47779;DHT22;33538;48.432;11.350;2022-09-13T10:14:04;17.10;95.80
47779;DHT22;33538;48.432;11.350;2022-09-13T10:16:30;17.10;96.10
47779;DHT22;33538;48.432;11.350;2022-09-13T10:19:20;17.10;96.60
47779;DHT22;33538;48.432;11.350;2022-09-13T10:21:59;17.20;96.50
47779;DHT22;33538;48.432;11.350;2022-09-13T10:24:26;17.20;96.60
47779;DHT22;33538;48.432;11.350;2022-09-13T10:26:53;17.30;97.10
47779;DHT22;33538;48.432;11.350;2022-09-13T10:29:22;17.30;97.10
47779;DHT22;33538;48.432;11.350;2022-09-13T10:31:50;17.30;97.40
47779;DHT22;33538;48.432;11.350;2022-09-13T10:34:20;17.40;97.50
47779;DHT22;33538;48.432;11.350;2022-09-13T10:36:52;17.40;97.90
47779;DHT22;33538;48.432;11.350;2022-09-13T10:39:21;17.40;98.20
47779;DHT22;33538;48.432;11.350;2022-09-13T10:41:51;17.40;98.40
47779;DHT22;33538;48.432;11.350;2022-09-13T10:44:26;17.50;98.40
47779;DHT22;33538;48.432;11.350;2022-09-13T10:46:54;17.50;98.60
47779;DHT22;33538;48.432;11.350;2022-09-13T10:49:37;17.50;98.80
47779;DHT22;33538;48.432;11.350;2022-09-13T10:52:28;17.50;99.20
47779;DHT22;33538;48.432;11.350;2022-09-13T10:55:23;17.60;99.20
47779;DHT22;33538;48.432;11.350;2022-09-13T10:57:51;17.60;99.50
47779;DHT22;33538;48.432;11.350;2022-09-13T11:00:21;17.60;99.70
47779;DHT22;33538;48.432;11.350;2022-09-13T11:03:10;17.60;99.90
47779;DHT22;33538;48.432;11.350;2022-09-13T11:05:41;17.70;99.90
47779;DHT22;33538;48.432;11.350;2022-09-13T11:08:20;17.70;99.90
47779;DHT22;33538;48.432;11.350;2022-09-13T11:11:00;17.70;99.90
47779;DHT22;33538;48.432;11.350;2022-09-13T11:13:38;17.70;99.90
47779;DHT22;33538;48.432;11.350;2022-09-13T11:16:27;17.70;99.90
47779;DHT22;33538;48.432;11.350;2022-09-13T11:22:11;17.80;99.90
47779;DHT22;33538;48.432;11.350;2022-09-13T11:24:54;17.80;99.90
47779;DHT22;33538;48.432;11.350;2022-09-13T11:27:32;17.80;99.90
47779;DHT22;33538;48.432;11.350;2022-09-13T11:30:10;17.80;99.90
47779;DHT22;33538;48.432;11.350;2022-09-13T11:32:57;17.90;99.90
47779;DHT22;33538;48.432;11.350;2022-09-13T11:35:40;17.90;99.90
47779;DHT22;33538;48.432;11.350;2022-09-13T11:38:22;17.90;99.90
47779;DHT22;33538;48.432;11.350;2022-09-13T11:40:57;17.90;99.90
47779;DHT22;33538;48.432;11.350;2022-09-13T11:43:39;18.00;99.90
47779;DHT22;33538;48.432;11.350;2022-09-13T11:46:18;17.90;99.90
47779;DHT22;33538;48.432;11.350;2022-09-13T11:49:00;18.00;99.90
47779;DHT22;33538;48.432;11.350;2022-09-13T11:51:39;18.00;99.90
47779;DHT22;33538;48.432;11.350;2022-09-13T11:54:17;18.10;99.90
47779;DHT22;33538;48.432;11.350;2022-09-13T11:56:51;18.10;99.90
47779;DHT22;33538;48.432;11.350;2022-09-13T11:59:27;18.10;99.90
47779;DHT22;33538;48.432;11.350;2022-09-13T12:02:02;18.10;99.90
47779;DHT22;33538;48.432;11.350;2022-09-13T12:04:36;18.10;99.90
47779;DHT22;33538;48.432;11.350;2022-09-13T12:07:09;18.20;99.90
47779;DHT22;33538;48.432;11.350;2022-09-13T12:09:43;18.20;99.90
47779;DHT22;33538;48.432;11.350;2022-09-13T12:12:12;18.20;99.90
47779;DHT22;33538;48.432;11.350;2022-09-13T12:14:42;18.20;99.90
47779;DHT22;33538;48.432;11.350;2022-09-13T12:17:20;18.20;99.90
47779;DHT22;33538;48.432;11.350;2022-09-13T12:19:52;18.20;99.90
47779;DHT22;33538;48.432;11.350;2022-09-13T12:22:22;18.30;99.90
47779;DHT22;33538;48.432;11.350;2022-09-13T12:24:58;18.30;99.90
47779;DHT22;33538;48.432;11.350;2022-09-13T12:27:31;18.30;99.90
47779;DHT22;33538;48.432;11.350;2022-09-13T12:30:08;18.40;99.90
47779;DHT22;33538;48.432;11.350;2022-09-13T12:32:39;18.40;99.90
47779;DHT22;33538;48.432;11.350;2022-09-13T12:35:13;18.40;99.90
47779;DHT22;33538;48.432;11.350;2022-09-13T12:37:55;18.40;99.90
47779;DHT22;33538;48.432;11.350;2022-09-13T12:40:36;18.50;99.90
47779;DHT22;33538;48.432;11.350;2022-09-13T12:43:34;18.50;99.90
47779;DHT22;33538;48.432;11.350;2022-09-13T12:49:26;18.60;99.90
47779;DHT22;33538;48.432;11.350;2022-09-13T12:52:10;18.70;99.90
47779;DHT22;33538;48.432;11.350;2022-09-13T12:55:13;18.70;99.90
47779;DHT22;33538;48.432;11.350;2022-09-13T12:58:14;18.70;99.90
47779;DHT22;33538;48.432;11.350;2022-09-13T13:00:49;18.70;99.90
47779;DHT22;33538;48.432;11.350;2022-09-13T13:03:29;18.80;99.90
47779;DHT22;33538;48.432;11.350;2022-09-13T13:06:07;18.80;99.90
47779;DHT22;33538;48.432;11.350;2022-09-13T13:08:37;18.80;99.90
47779;DHT22;33538;48.432;11.350;2022-09-13T13:11:05;18.80;99.90
47779;DHT22;33538;48.432;11.350;2022-09-13T13:13:36;18.80;99.90
47779;DHT22;33538;48.432;11.350;2022-09-13T13:16:20;18.90;99.90
47779;DHT22;33538;48.432;11.350;2022-09-13T13:18:48;18.90;99.90
47779;DHT22;33538;48.432;11.350;2022-09-13T13:21:25;18.90;99.90
47779;DHT22;33538;48.432;11.350;2022-09-13T13:26:58;19.00;99.90
47779;DHT22;33538;48.432;11.350;2022-09-13T13:29:25;19.00;99.90
47779;DHT22;33538;48.432;11.350;2022-09-13T13:32:10;19.00;99.90
47779;DHT22;33538;48.432;11.350;2022-09-13T13:34:43;19.00;99.90
47779;DHT22;33538;48.432;11.350;2022-09-13T13:37:30;19.00;99.90
47779;DHT22;33538;48.432;11.350;2022-09-13T13:40:18;19.10;99.90
47779;DHT22;33538;48.432;11.350;2022-09-13T13:42:47;19.10;99.90
47779;DHT22;33538;48.432;11.350;2022-09-13T13:45:23;19.10;99.90
47779;DHT22;33538;48.432;11.350;2022-09-13T13:51:13;19.10;99.90
47779;DHT22;33538;48.432;11.350;2022-09-13T13:53:43;19.20;99.90
47779;DHT22;33538;48.432;11.350;2022-09-13T13:56:43;19.20;99.90
47779;DHT22;33538;48.432;11.350;2022-09-13T13:59:16;19.20;99.90
47779;DHT22;33538;48.432;11.350;2022-09-13T14:01:47;19.20;99.90
47779;DHT22;33538;48.432;11.350;2022-09-13T14:04:38;19.20;99.90
47779;DHT22;33538;48.432;11.350;2022-09-13T14:07:23;19.20;99.90
47779;DHT22;33538;48.432;11.350;2022-09-13T14:09:58;19.20;99.90
47779;DHT22;33538;48.432;11.350;2022-09-13T14:12:35;19.30;99.90
47779;DHT22;33538;48.432;11.350;2022-09-13T14:15:24;19.30;99.90
47779;DHT22;33538;48.432;11.350;2022-09-13T14:20:57;19.30;99.90
47779;DHT22;33538;48.432;11.350;2022-09-13T14:23:24;19.40;99.90
47779;DHT22;33538;48.432;11.350;2022-09-13T14:25:53;19.40;99.90
47779;DHT22;33538;48.432;11.350;2022-09-13T14:28:22;19.40;99.90
47779;DHT22;33538;48.432;11.350;2022-09-13T14:30:54;19.40;99.90
47779;DHT22;33538;48.432;11.350;2022-09-13T14:33:24;19.40;99.90
47779;DHT22;33538;48.432;11.350;2022-09-13T14:36:02;19.40;99.90
47779;DHT22;33538;48.432;11.350;2022-09-13T14:38:30;19.40;99.90
47779;DHT22;33538;48.432;11.350;2022-09-13T14:40:59;19.50;99.90
47779;DHT22;33538;48.432;11.350;2022-09-13T14:43:28;19.50;99.90
47779;DHT22;33538;48.432;11.350;2022-09-13T14:45:59;19.50;99.90
47779;DHT22;33538;48.432;11.350;2022-09-13T14:48:31;19.50;99.90
47779;DHT22;33538;48.432;11.350;2022-09-13T14:51:05;19.50;99.90
47779;DHT22;33538;48.432;11.350;2022-09-13T14:53:34;19.50;99.90
47779;DHT22;33538;48.432;11.350;2022-09-13T14:56:04;19.50;99.90
47779;DHT22;33538;48.432;11.350;2022-09-13T14:58:36;19.60;99.90
47779;DHT22;33538;48.432;11.350;2022-09-13T15:01:08;19.60;99.90
47779;DHT22;33538;48.432;11.350;2022-09-13T15:03:40;19.60;99.90
47779;DHT22;33538;48.432;11.350;2022-09-13T15:06:17;19.60;99.90
47779;DHT22;33538;48.432;11.350;2022-09-13T15:08:46;19.60;99.90
47779;DHT22;33538;48.432;11.350;2022-09-13T15:11:25;19.60;99.90
47779;DHT22;33538;48.432;11.350;2022-09-13T15:14:14;19.60;99.90
47779;DHT22;33538;48.432;11.350;2022-09-13T15:16:50;19.70;99.90
47779;DHT22;33538;48.432;11.350;2022-09-13T15:19:34;19.60;99.90
47779;DHT22;33538;48.432;11.350;2022-09-13T15:22:03;19.70;99.90
47779;DHT22;33538;48.432;11.350;2022-09-13T15:24:32;19.70;99.90
47779;DHT22;33538;48.432;11.350;2022-09-13T15:27:04;19.70;99.90
47779;DHT22;33538;48.432;11.350;2022-09-13T15:29:32;19.70;99.90
47779;DHT22;33538;48.432;11.350;2022-09-13T15:32:01;19.80;99.90
47779;DHT22;33538;48.432;11.350;2022-09-13T15:34:29;19.80;99.90
47779;DHT22;33538;48.432;11.350;2022-09-13T15:37:08;19.80;99.90
47779;DHT22;33538;48.432;11.350;2022-09-13T15:39:43;19.80;99.90
47779;DHT22;33538;48.432;11.350;2022-09-13T15:42:10;19.80;99.90
47779;DHT22;33538;48.432;11.350;2022-09-13T15:44:37;19.80;99.90
47779;DHT22;33538;48.432;11.350;2022-09-13T15:47:13;19.80;99.90
47779;DHT22;33538;48.432;11.350;2022-09-13T15:49:46;19.80;99.90
47779;DHT22;33538;48.432;11.350;2022-09-13T15:52:13;19.80;99.90
47779;DHT22;33538;48.432;11.350;2022-09-13T15:54:41;19.90;99.90
47779;DHT22;33538;48.432;11.350;2022-09-13T15:57:12;19.80;99.90
47779;DHT22;33538;48.432;11.350;2022-09-13T15:59:40;19.80;99.90
47779;DHT22;33538;48.432;11.350;2022-09-13T16:02:17;19.80;99.90
47779;DHT22;33538;48.432;11.350;2022-09-13T16:04:45;19.80;99.90
47779;DHT22;33538;48.432;11.350;2022-09-13T16:07:12;19.80;99.90
47779;DHT22;33538;48.432;11.350;2022-09-13T16:09:39;19.90;99.90
47779;DHT22;33538;48.432;11.350;2022-09-13T16:12:06;19.90;99.90
47779;DHT22;33538;48.432;11.350;2022-09-13T16:14:33;19.90;99.90